Time;durP1;ratioP1;P1;durP2;ratioP2;P2;SDS_P1;SDS_P2;PMS_P1;PMS_P2;Temp;Humidity;BMP_temperature;BMP_pressure;BME280_temperature;BME280_humidity;BME280_pressure;Samples;Min_cycle;Max_cycle;Signal;HPM_P1;HPM_P2
2023/09/16 00:01:21;;;;;;;3.30;3.00;;;14.30;99.90;;;;;;5101238;28;20172;-82
2023/09/16 00:03:47;;;;;;;3.63;2.80;;;14.20;99.90;;;;;;5102899;28;20232;-82
2023/09/16 00:06:12;;;;;;;3.20;2.90;;;14.20;99.90;;;;;;5103150;28;20172;-82
2023/09/16 00:08:39;;;;;;;3.43;3.13;;;14.20;99.90;;;;;;5101234;28;20232;-82
2023/09/16 00:11:09;;;;;;;3.00;2.70;;;14.30;99.90;;;;;;5102503;28;20269;-82
2023/09/16 00:13:34;;;;;;;3.33;3.00;;;14.20;99.90;;;;;;5093331;28;20175;-82
2023/09/16 00:16:00;;;;;;;3.87;3.10;;;14.20;99.90;;;;;;5100822;28;20168;-82
2023/09/16 00:18:25;;;;;;;5.60;3.43;;;14.10;99.90;;;;;;5103196;28;20204;-82
2023/09/16 00:20:52;;;;;;;3.30;3.00;;;14.00;99.90;;;;;;5099480;28;20168;-82
2023/09/16 00:23:18;;;;;;;3.37;2.80;;;14.00;99.90;;;;;;5103272;28;20184;-82
2023/09/16 00:25:45;;;;;;;3.30;2.93;;;14.00;99.90;;;;;;5102226;28;20183;-82
2023/09/16 00:28:10;;;;;;;3.53;2.83;;;14.00;99.90;;;;;;5101866;28;20192;-83
2023/09/16 00:30:38;;;;;;;2.80;2.50;;;14.00;99.90;;;;;;5103791;28;20169;-82
2023/09/16 00:33:04;;;;;;;3.23;2.90;;;13.90;99.90;;;;;;5094091;28;20233;-82
2023/09/16 00:35:30;;;;;;;3.87;3.47;;;14.00;99.90;;;;;;5097507;28;20180;-82
2023/09/16 00:37:56;;;;;;;3.60;2.93;;;13.90;99.90;;;;;;5102637;28;20204;-82
2023/09/16 00:40:21;;;;;;;3.37;3.07;;;13.90;99.90;;;;;;5104356;28;20172;-80
2023/09/16 00:42:47;;;;;;;3.53;2.60;;;13.80;99.90;;;;;;5104275;28;20551;-82
2023/09/16 00:45:14;;;;;;;2.73;2.53;;;13.80;99.90;;;;;;5103516;28;20169;-83
2023/09/16 00:47:40;;;;;;;3.43;2.80;;;13.70;99.90;;;;;;5101649;28;20196;-82
2023/09/16 00:50:07;;;;;;;3.67;2.87;;;13.60;99.90;;;;;;5101302;28;20232;-82
2023/09/16 00:52:36;;;;;;;3.57;3.00;;;13.60;99.90;;;;;;5101359;28;20608;-83
2023/09/16 00:55:02;;;;;;;2.90;2.70;;;13.70;99.90;;;;;;5102034;28;20175;-82
2023/09/16 00:57:29;;;;;;;2.80;2.60;;;13.60;99.90;;;;;;5100683;28;20279;-82
2023/09/16 00:59:55;;;;;;;3.00;2.70;;;13.60;99.90;;;;;;5102475;28;20264;-82
2023/09/16 01:02:21;;;;;;;3.83;2.90;;;13.60;99.90;;;;;;5101377;28;20204;-82
2023/09/16 01:04:47;;;;;;;3.40;3.10;;;13.50;99.90;;;;;;5101831;28;20172;-82
2023/09/16 01:07:14;;;;;;;3.23;2.93;;;13.50;99.90;;;;;;5103342;28;20183;-83
2023/09/16 01:09:40;;;;;;;3.20;2.87;;;13.40;99.90;;;;;;5101292;28;20219;-82
2023/09/16 01:12:07;;;;;;;3.30;3.00;;;13.50;99.90;;;;;;5094707;28;20187;-82
2023/09/16 01:14:33;;;;;;;3.50;2.57;;;13.50;99.90;;;;;;5086057;28;20173;-82
2023/09/16 01:17:14;;;;;;;3.40;2.80;;;13.60;99.90;;;;;;5094100;28;20557;-82
2023/09/16 01:19:50;;;;;;;3.57;2.80;;;13.60;99.90;;;;;;5086262;28;20192;-83
2023/09/16 01:22:17;;;;;;;5.23;3.10;;;13.80;99.90;;;;;;5087461;28;20172;-82
2023/09/16 01:24:50;;;;;;;3.27;2.97;;;13.80;99.90;;;;;;5080888;28;20165;-82
2023/09/16 01:27:15;;;;;;;3.10;2.80;;;13.80;99.90;;;;;;5095384;28;20269;-82
2023/09/16 01:29:41;;;;;;;3.23;2.97;;;13.70;99.90;;;;;;5095599;28;20222;-82
2023/09/16 01:32:10;;;;;;;3.07;2.80;;;13.60;99.90;;;;;;5076993;28;20172;-82
2023/09/16 01:34:49;;;;;;;4.70;3.10;;;13.40;99.90;;;;;;5095032;28;20173;-82
2023/09/16 01:37:19;;;;;;;3.93;3.10;;;13.40;99.90;;;;;;5095383;28;20196;-82
2023/09/16 01:39:49;;;;;;;2.33;2.10;;;13.40;99.90;;;;;;5094973;28;20663;-82
2023/09/16 01:42:16;;;;;;;3.07;2.80;;;13.50;99.90;;;;;;5076670;28;20176;-82
2023/09/16 01:44:42;;;;;;;3.10;2.80;;;13.40;99.90;;;;;;5077134;28;20253;-82
2023/09/16 01:47:07;;;;;;;3.40;2.90;;;13.40;99.90;;;;;;5076668;28;20205;-82
2023/09/16 01:49:33;;;;;;;2.90;2.63;;;13.30;99.90;;;;;;5095199;28;20536;-82
2023/09/16 01:51:59;;;;;;;4.13;2.40;;;13.30;99.90;;;;;;5076812;28;20169;-83
2023/09/16 01:54:25;;;;;;;2.70;2.50;;;13.40;99.90;;;;;;5077047;28;20703;-82
2023/09/16 01:56:51;;;;;;;2.67;2.40;;;13.20;99.90;;;;;;5075890;28;20196;-83
2023/09/16 01:59:16;;;;;;;3.80;3.17;;;13.20;99.90;;;;;;5084836;28;20202;-82
2023/09/16 02:01:43;;;;;;;3.10;2.80;;;13.10;99.90;;;;;;5089999;28;20550;-82
2023/09/16 02:04:08;;;;;;;2.93;2.60;;;13.20;99.90;;;;;;5095442;28;20177;-82
2023/09/16 02:06:34;;;;;;;3.87;3.10;;;13.20;99.90;;;;;;5095336;28;20218;-82
2023/09/16 02:08:59;;;;;;;3.57;2.50;;;13.20;99.90;;;;;;5093255;28;20214;-82
2023/09/16 02:11:25;;;;;;;2.90;2.70;;;13.20;99.90;;;;;;5094867;28;20648;-82
2023/09/16 02:13:51;;;;;;;4.23;2.90;;;13.20;99.90;;;;;;5094566;28;20168;-83
2023/09/16 02:16:16;;;;;;;4.53;3.10;;;13.20;99.90;;;;;;5095532;28;20198;-82
2023/09/16 02:18:42;;;;;;;2.97;2.43;;;13.20;99.90;;;;;;5090413;28;20266;-82
2023/09/16 02:21:07;;;;;;;4.07;2.60;;;13.10;99.90;;;;;;5095106;28;20247;-82
2023/09/16 02:23:33;;;;;;;4.47;2.80;;;13.00;99.90;;;;;;5093811;28;20172;-84
2023/09/16 02:26:01;;;;;;;2.87;2.50;;;13.00;99.90;;;;;;5092989;28;20176;-82
2023/09/16 02:28:26;;;;;;;3.10;2.80;;;13.10;99.90;;;;;;5095146;28;20197;-82
2023/09/16 02:30:52;;;;;;;3.43;3.00;;;13.10;99.90;;;;;;5094776;28;20174;-83
2023/09/16 02:33:17;;;;;;;5.47;2.80;;;13.20;99.90;;;;;;5093553;28;20671;-82
2023/09/16 02:35:43;;;;;;;3.30;3.00;;;13.00;99.90;;;;;;5093654;28;20177;-82
2023/09/16 02:38:09;;;;;;;3.50;2.90;;;13.00;99.90;;;;;;5086046;28;20203;-82
2023/09/16 02:40:41;;;;;;;3.80;3.50;;;13.10;99.90;;;;;;5095369;28;20179;-82
2023/09/16 02:43:08;;;;;;;4.37;3.23;;;13.10;99.90;;;;;;5094408;28;20188;-82
2023/09/16 02:45:41;;;;;;;4.50;3.30;;;13.20;99.90;;;;;;5098044;28;20172;-82
2023/09/16 02:48:06;;;;;;;2.93;2.63;;;13.20;99.90;;;;;;5098161;28;20264;-83
2023/09/16 02:50:37;;;;;;;4.77;3.10;;;13.20;99.90;;;;;;5097577;28;20203;-81
2023/09/16 02:53:02;;;;;;;3.80;3.03;;;13.10;99.90;;;;;;5097111;28;20179;-82
2023/09/16 02:55:28;;;;;;;4.90;3.17;;;13.00;99.90;;;;;;5097592;28;20176;-84
2023/09/16 02:57:54;;;;;;;2.90;2.60;;;12.90;99.90;;;;;;5097656;28;20208;-82
2023/09/16 03:00:20;;;;;;;3.17;2.63;;;12.90;99.90;;;;;;5097368;28;20189;-82
2023/09/16 03:02:49;;;;;;;4.27;3.87;;;12.90;99.90;;;;;;5097962;28;20172;-82
2023/09/16 03:05:18;;;;;;;4.33;3.27;;;12.80;99.90;;;;;;5097183;28;20169;-82
2023/09/16 03:07:44;;;;;;;4.00;3.03;;;12.90;99.90;;;;;;5098080;28;20597;-82
2023/09/16 03:10:10;;;;;;;3.53;3.20;;;12.90;99.90;;;;;;5087981;28;20183;-82
2023/09/16 03:12:36;;;;;;;4.13;3.07;;;12.90;99.90;;;;;;5097863;28;20176;-82
2023/09/16 03:15:02;;;;;;;4.63;3.20;;;12.90;99.90;;;;;;5097949;28;20336;-82
2023/09/16 03:17:29;;;;;;;4.10;3.10;;;13.00;99.90;;;;;;5098449;28;20203;-83
2023/09/16 03:19:54;;;;;;;4.10;3.70;;;12.80;99.90;;;;;;5098200;28;20256;-82
2023/09/16 03:22:20;;;;;;;6.33;3.43;;;12.70;99.90;;;;;;5098155;28;20195;-82
2023/09/16 03:24:45;;;;;;;3.80;3.10;;;12.70;99.90;;;;;;5098599;28;20167;-82
2023/09/16 03:27:11;;;;;;;4.63;3.33;;;12.70;99.90;;;;;;5096294;28;20168;-83
2023/09/16 03:29:36;;;;;;;3.37;3.07;;;12.70;99.90;;;;;;5096256;28;20199;-82
2023/09/16 03:32:02;;;;;;;3.90;3.40;;;12.70;99.90;;;;;;5097651;28;20165;-82
2023/09/16 03:34:28;;;;;;;3.80;3.47;;;12.70;99.90;;;;;;5096637;28;20172;-83
2023/09/16 03:36:53;;;;;;;3.43;3.00;;;12.80;99.90;;;;;;5098613;28;20216;-83
2023/09/16 03:39:19;;;;;;;3.50;3.10;;;12.80;99.90;;;;;;5098130;28;20214;-82
2023/09/16 03:41:45;;;;;;;4.27;3.23;;;12.70;99.90;;;;;;5096477;28;20644;-82
2023/09/16 03:44:12;;;;;;;3.50;3.20;;;12.70;99.90;;;;;;5096413;28;20210;-82
2023/09/16 03:46:39;;;;;;;3.30;3.00;;;12.70;99.90;;;;;;5097910;28;20222;-82
2023/09/16 03:49:05;;;;;;;3.63;3.27;;;12.60;99.90;;;;;;5097738;28;20200;-82
2023/09/16 03:51:31;;;;;;;4.47;3.30;;;12.50;99.90;;;;;;5097269;28;20652;-83
2023/09/16 03:53:57;;;;;;;4.50;3.13;;;12.40;99.90;;;;;;5096386;28;20176;-82
2023/09/16 03:56:22;;;;;;;3.40;3.10;;;12.30;99.90;;;;;;5097772;28;20180;-82
2023/09/16 03:58:48;;;;;;;3.53;3.23;;;12.30;99.90;;;;;;5095976;28;20250;-83
2023/09/16 04:01:14;;;;;;;3.60;3.30;;;12.40;99.90;;;;;;5097316;28;20558;-82
2023/09/16 04:03:40;;;;;;;3.30;3.00;;;12.50;99.90;;;;;;5096375;28;20335;-82
2023/09/16 04:06:06;;;;;;;3.90;3.50;;;12.60;99.90;;;;;;5097176;28;20184;-82
2023/09/16 04:08:32;;;;;;;3.80;3.50;;;12.50;99.90;;;;;;5098334;28;20223;-82
2023/09/16 04:10:58;;;;;;;3.93;3.30;;;12.50;99.90;;;;;;5085475;28;20260;-82
2023/09/16 04:13:23;;;;;;;3.80;3.10;;;12.50;99.90;;;;;;5080654;28;20199;-82
2023/09/16 04:15:50;;;;;;;3.60;3.30;;;12.50;99.90;;;;;;5097958;28;20175;-83
2023/09/16 04:18:16;;;;;;;3.83;3.50;;;12.50;99.90;;;;;;5094231;28;20265;-83
2023/09/16 04:20:41;;;;;;;3.53;3.10;;;12.50;99.90;;;;;;5097192;28;20168;-82
2023/09/16 04:23:08;;;;;;;4.07;3.40;;;12.40;99.90;;;;;;5099080;28;20175;-82
2023/09/16 04:25:35;;;;;;;3.80;3.50;;;12.40;99.90;;;;;;5102760;28;20217;-82
2023/09/16 04:28:02;;;;;;;5.10;3.33;;;12.30;99.90;;;;;;5102912;28;20204;-82
2023/09/16 04:30:27;;;;;;;4.70;3.30;;;12.30;99.90;;;;;;5104191;28;20164;-82
2023/09/16 04:32:54;;;;;;;4.20;3.10;;;12.30;99.90;;;;;;5102201;28;20202;-82
2023/09/16 04:35:20;;;;;;;4.67;3.30;;;12.20;99.90;;;;;;5098683;28;20392;-82
2023/09/16 04:37:45;;;;;;;3.80;3.50;;;12.10;99.90;;;;;;5097163;28;20226;-82
2023/09/16 04:40:11;;;;;;;4.30;3.63;;;12.20;99.90;;;;;;5096796;28;20177;-82
2023/09/16 04:42:38;;;;;;;4.80;3.27;;;12.30;99.90;;;;;;5096756;28;20176;-82
2023/09/16 04:45:06;;;;;;;4.50;3.20;;;12.40;99.90;;;;;;5098448;28;20640;-82
2023/09/16 04:47:34;;;;;;;4.07;3.57;;;12.40;99.90;;;;;;5097936;28;20176;-82
2023/09/16 04:50:00;;;;;;;4.10;3.23;;;12.40;99.90;;;;;;5098533;28;20169;-84
2023/09/16 04:52:27;;;;;;;4.50;3.17;;;12.30;99.90;;;;;;5097494;28;20176;-82
2023/09/16 04:54:53;;;;;;;4.57;3.47;;;12.30;99.90;;;;;;5098465;28;20198;-82
2023/09/16 04:57:20;;;;;;;3.70;3.40;;;12.20;99.90;;;;;;5096740;28;20203;-82
2023/09/16 04:59:46;;;;;;;3.87;3.47;;;12.20;99.90;;;;;;5097030;28;20175;-82
2023/09/16 05:02:12;;;;;;;3.90;3.27;;;12.20;99.90;;;;;;5098101;28;20173;-83
2023/09/16 05:04:37;;;;;;;6.00;3.57;;;12.20;99.90;;;;;;5097485;28;20282;-81
2023/09/16 05:07:06;;;;;;;4.63;3.30;;;12.20;99.90;;;;;;5097239;28;20221;-84
2023/09/16 05:09:32;;;;;;;3.50;3.07;;;12.20;99.90;;;;;;5095819;28;20199;-83
2023/09/16 05:11:57;;;;;;;2.90;2.60;;;12.20;99.90;;;;;;5094768;28;20592;-83
2023/09/16 05:14:24;;;;;;;3.20;2.90;;;12.10;99.90;;;;;;5096103;28;20165;-82
2023/09/16 05:16:50;;;;;;;3.97;3.57;;;12.00;99.90;;;;;;5095902;28;20176;-83
2023/09/16 05:19:15;;;;;;;5.57;3.73;;;12.10;99.90;;;;;;5095513;28;20269;-86
2023/09/16 05:21:41;;;;;;;7.43;4.17;;;12.20;99.90;;;;;;5085391;28;20585;-84
2023/09/16 05:24:07;;;;;;;3.20;2.90;;;12.20;99.90;;;;;;5094626;28;20173;-85
2023/09/16 05:26:32;;;;;;;4.07;3.10;;;12.20;99.90;;;;;;5096097;28;20178;-82
2023/09/16 05:28:58;;;;;;;3.30;3.00;;;12.10;99.90;;;;;;5097556;28;20218;-82
2023/09/16 05:31:24;;;;;;;3.77;3.33;;;12.20;99.90;;;;;;5097345;28;20201;-83
2023/09/16 05:33:50;;;;;;;3.90;3.50;;;12.10;99.90;;;;;;5088881;28;20204;-82
2023/09/16 05:36:16;;;;;;;3.90;3.27;;;12.10;99.90;;;;;;5096045;28;20517;-83
2023/09/16 05:38:42;;;;;;;3.90;3.50;;;12.10;99.90;;;;;;5078291;28;20207;-81
2023/09/16 05:41:07;;;;;;;3.63;3.33;;;12.20;99.90;;;;;;5077644;28;20172;-83
2023/09/16 05:43:33;;;;;;;4.17;3.30;;;12.20;99.90;;;;;;5096721;28;20169;-82
2023/09/16 05:46:01;;;;;;;3.47;3.10;;;12.30;99.90;;;;;;5096388;28;20176;-81
2023/09/16 05:48:26;;;;;;;3.80;3.40;;;12.30;99.90;;;;;;5077292;28;20559;-83
2023/09/16 05:50:56;;;;;;;4.80;3.50;;;12.40;99.90;;;;;;5077825;28;20173;-81
2023/09/16 05:53:22;;;;;;;3.63;3.30;;;12.50;99.90;;;;;;5094837;28;20183;-81
2023/09/16 05:55:47;;;;;;;4.17;3.27;;;12.70;99.90;;;;;;5095362;28;20164;-82
2023/09/16 05:58:13;;;;;;;3.77;3.10;;;12.60;99.90;;;;;;5093960;28;20207;-81
2023/09/16 06:00:38;;;;;;;4.00;3.10;;;12.70;99.90;;;;;;5085382;28;20713;-81
2023/09/16 06:03:04;;;;;;;4.07;2.90;;;12.60;99.90;;;;;;5095432;28;20200;-81
2023/09/16 06:05:30;;;;;;;3.77;3.37;;;12.60;99.90;;;;;;5093743;28;20184;-81
2023/09/16 06:07:55;;;;;;;4.13;3.63;;;12.60;99.90;;;;;;5095242;28;20204;-84
2023/09/16 06:10:21;;;;;;;4.47;3.37;;;12.60;99.90;;;;;;5089010;28;20180;-81
2023/09/16 06:12:47;;;;;;;3.73;3.43;;;12.70;99.90;;;;;;5084713;28;20172;-82
2023/09/16 06:15:12;;;;;;;3.90;3.53;;;12.80;99.90;;;;;;5093686;28;20257;-81
2023/09/16 06:17:39;;;;;;;4.40;3.93;;;12.80;99.90;;;;;;5093320;28;20314;-81
2023/09/16 06:20:05;;;;;;;4.13;3.73;;;12.90;99.90;;;;;;5095229;28;20203;-82
2023/09/16 06:22:31;;;;;;;4.63;4.20;;;13.00;99.90;;;;;;5093255;28;20176;-81
2023/09/16 06:24:57;;;;;;;6.00;4.03;;;13.00;99.90;;;;;;5095151;28;20218;-81
2023/09/16 06:27:22;;;;;;;4.47;4.07;;;13.00;99.90;;;;;;5110124;28;20187;-84
2023/09/16 06:29:48;;;;;;;4.40;4.00;;;13.00;99.90;;;;;;5094195;28;20207;-83
2023/09/16 06:32:14;;;;;;;4.40;4.00;;;13.10;99.90;;;;;;5094588;28;20184;-89
2023/09/16 06:34:40;;;;;;;4.50;4.10;;;13.10;99.90;;;;;;5094099;28;20200;-82
2023/09/16 06:37:05;;;;;;;4.73;4.30;;;13.20;99.90;;;;;;5095514;28;20179;-81
2023/09/16 06:39:32;;;;;;;4.73;4.23;;;13.30;99.90;;;;;;5094038;28;20232;-84
2023/09/16 06:41:58;;;;;;;4.90;4.40;;;13.30;99.90;;;;;;5094585;28;20168;-81
2023/09/16 06:44:23;;;;;;;4.63;4.23;;;13.30;99.90;;;;;;5094176;28;20196;-80
2023/09/16 06:46:49;;;;;;;4.67;4.10;;;13.50;99.90;;;;;;5093670;28;20184;-82
2023/09/16 06:49:17;;;;;;;4.63;4.23;;;13.50;99.90;;;;;;5094025;28;20188;-81
2023/09/16 06:51:43;;;;;;;5.13;4.43;;;13.50;99.90;;;;;;5095470;28;20192;-84
2023/09/16 06:54:08;;;;;;;4.80;4.30;;;13.60;99.90;;;;;;5094390;28;20172;-80
2023/09/16 06:56:34;;;;;;;4.80;4.30;;;13.60;99.90;;;;;;5093900;28;20263;-82
2023/09/16 06:59:01;;;;;;;5.93;4.50;;;13.70;99.90;;;;;;5093384;28;20275;-82
2023/09/16 07:01:27;;;;;;;4.83;4.43;;;13.80;99.90;;;;;;5072142;28;20176;-81
2023/09/16 07:03:52;;;;;;;5.13;4.43;;;13.80;99.90;;;;;;5086828;28;20186;-81
2023/09/16 07:06:18;;;;;;;5.33;4.30;;;13.90;99.90;;;;;;5073184;28;20169;-81
2023/09/16 07:08:43;;;;;;;4.70;4.30;;;13.90;99.90;;;;;;5083881;28;20208;-80
2023/09/16 07:11:11;;;;;;;5.03;4.53;;;14.00;99.90;;;;;;5090941;28;20196;-80
2023/09/16 07:13:36;;;;;;;4.70;4.30;;;14.10;99.90;;;;;;5089371;22;20224;-81
2023/09/16 07:16:02;;;;;;;5.10;4.60;;;14.20;99.90;;;;;;5073395;28;20169;-80
2023/09/16 07:18:27;;;;;;;4.87;4.20;;;14.30;99.90;;;;;;5073500;28;20224;-79
2023/09/16 07:20:53;;;;;;;5.27;4.70;;;14.50;99.90;;;;;;5069046;28;20170;-78
2023/09/16 07:23:18;;;;;;;4.90;4.50;;;14.60;99.90;;;;;;5071875;28;20181;-83
2023/09/16 07:25:58;;;;;;;4.70;4.20;;;14.70;99.90;;;;;;5068615;28;20183;-80
2023/09/16 07:28:24;;;;;;;4.80;4.30;;;14.80;99.90;;;;;;5077083;28;20173;-80
2023/09/16 07:30:50;;;;;;;5.13;4.63;;;15.00;99.90;;;;;;5073204;28;20177;-82
2023/09/16 07:33:16;;;;;;;5.40;4.63;;;15.10;99.90;;;;;;5072877;28;20208;-82
2023/09/16 07:35:41;;;;;;;5.13;4.63;;;15.20;99.90;;;;;;5075596;28;20169;-82
2023/09/16 07:38:08;;;;;;;4.70;4.30;;;15.30;99.90;;;;;;5071975;28;20199;-83
2023/09/16 07:40:35;;;;;;;6.37;4.83;;;15.40;99.90;;;;;;5070627;28;20177;-83
2023/09/16 07:43:01;;;;;;;5.50;4.47;;;15.50;99.90;;;;;;5074296;28;20299;-83
2023/09/16 07:45:27;;;;;;;5.27;4.60;;;15.70;99.90;;;;;;5075821;28;20252;-83
2023/09/16 07:47:53;;;;;;;5.70;4.67;;;15.90;99.90;;;;;;5074651;28;20182;-84
2023/09/16 07:50:19;;;;;;;4.60;4.20;;;16.00;99.90;;;;;;5074742;28;20173;-81
2023/09/16 07:52:44;;;;;;;5.20;4.70;;;16.10;99.90;;;;;;5075162;28;20179;-82
2023/09/16 07:55:10;;;;;;;6.70;5.07;;;16.30;99.90;;;;;;5074944;28;20617;-80
2023/09/16 07:57:36;;;;;;;4.47;3.80;;;17.30;99.90;;;;;;5078342;28;20197;-78
2023/09/16 08:00:07;;;;;;;4.23;3.30;;;18.10;99.90;;;;;;5094414;28;20169;-83
2023/09/16 08:02:33;;;;;;;3.17;2.93;;;18.80;99.90;;;;;;5076930;28;20676;-80
2023/09/16 08:04:59;;;;;;;6.60;3.70;;;19.50;99.90;;;;;;5078288;28;20189;-79
2023/09/16 08:07:24;;;;;;;5.63;2.90;;;20.10;99.90;;;;;;5075888;28;20191;-80
2023/09/16 08:09:50;;;;;;;3.65;3.20;;;20.40;1.00;;;;;;5094451;28;20177;-80
2023/09/16 08:12:17;;;;;;;4.53;3.10;;;20.80;1.00;;;;;;5078276;28;20543;-80
2023/09/16 08:14:43;;;;;;;3.67;3.28;;;20.80;1.00;;;;;;5078518;28;20205;-80
2023/09/16 08:17:08;;;;;;;7.45;5.55;;;21.00;1.00;;;;;;5094490;28;20177;-80
2023/09/16 08:19:34;;;;;;;4.28;3.88;;;21.00;1.00;;;;;;5095028;28;20169;-80
2023/09/16 08:22:00;;;;;;;4.13;3.72;;;20.90;1.00;;;;;;5078503;28;20613;-80
2023/09/16 08:24:26;;;;;;;4.30;3.90;;;20.80;1.00;;;;;;5079537;28;20247;-80
2023/09/16 08:26:52;;;;;;;7.78;4.40;;;20.50;1.00;;;;;;5079453;28;20165;-80
2023/09/16 08:29:17;;;;;;;4.50;3.80;;;20.60;19.70;;;;;;5076675;28;20173;-82
2023/09/16 08:31:43;;;;;;;5.45;3.45;;;20.80;1.00;;;;;;5077124;28;20264;-80
2023/09/16 08:34:08;;;;;;;4.70;4.05;;;20.80;1.00;;;;;;5076485;28;20189;-79
2023/09/16 08:36:34;;;;;;;4.03;3.63;;;21.10;7.00;;;;;;5076906;28;20629;-78
2023/09/16 08:38:59;;;;;;;3.70;3.40;;;21.10;1.00;;;;;;5077046;28;20196;-80
2023/09/16 08:41:28;;;;;;;3.80;3.50;;;21.10;1.00;;;;;;5076140;28;20226;-78
2023/09/16 08:43:58;;;;;;;4.18;3.78;;;21.30;1.00;;;;;;5076067;28;20185;-78
2023/09/16 08:46:27;;;;;;;4.05;3.65;;;21.50;1.00;;;;;;5079612;28;20663;-85
2023/09/16 08:48:55;;;;;;;4.43;3.90;;;21.40;1.00;;;;;;5077906;28;20196;-85
2023/09/16 08:51:21;;;;;;;4.20;3.80;;;21.50;99.90;;;;;;5078635;28;20185;-84
2023/09/16 08:53:51;;;;;;;5.07;4.00;;;21.30;1.00;;;;;;5078789;28;20204;-84
2023/09/16 08:56:17;;;;;;;3.92;3.53;;;21.20;99.90;;;;;;5078763;28;20180;-84
2023/09/16 08:58:44;;;;;;;3.90;3.60;;;21.20;1.00;;;;;;5076570;28;20204;-85
2023/09/16 09:01:11;;;;;;;5.05;4.20;;;21.30;1.00;;;;;;5078657;28;20176;-84
2023/09/16 09:03:36;;;;;;;4.40;4.00;;;21.50;1.00;;;;;;5077564;28;20193;-85
2023/09/16 09:06:05;;;;;;;4.60;3.72;;;21.60;1.00;;;;;;5077232;28;20172;-86
2023/09/16 09:08:32;;;;;;;4.95;3.78;;;21.60;18.30;;;;;;5077291;28;20172;-85
2023/09/16 09:10:58;;;;;;;3.70;3.30;;;21.70;99.90;;;;;;5077099;28;20176;-85
2023/09/16 09:13:24;;;;;;;3.83;3.42;;;21.80;99.90;;;;;;5076854;28;20268;-85
2023/09/16 09:15:55;;;;;;;3.72;3.33;;;22.10;70.70;;;;;;5076819;28;20280;-85
2023/09/16 09:18:23;;;;;;;3.88;3.42;;;22.30;99.90;;;;;;5078364;28;20208;-85
2023/09/16 09:20:49;;;;;;;3.28;2.97;;;22.50;99.90;;;;;;5077970;28;20169;-85
2023/09/16 09:23:14;;;;;;;3.47;3.17;;;22.70;1.00;;;;;;5093526;28;20571;-83
2023/09/16 09:25:43;;;;;;;3.40;3.10;;;22.90;99.90;;;;;;5078523;28;20199;-84
2023/09/16 09:28:08;;;;;;;4.32;3.15;;;23.00;99.90;;;;;;5078445;28;20169;-85
2023/09/16 09:30:34;;;;;;;3.45;3.03;;;23.10;1.00;;;;;;5076837;28;20314;-84
2023/09/16 09:33:00;;;;;;;3.72;3.40;;;23.20;1.00;;;;;;5093651;28;20224;-85
2023/09/16 09:35:28;;;;;;;3.45;3.15;;;23.40;1.00;;;;;;5077546;28;20176;-85
2023/09/16 09:37:54;;;;;;;3.45;2.97;;;23.70;99.90;;;;;;5077960;28;20223;-85
2023/09/16 09:40:21;;;;;;;3.67;3.38;;;23.70;40.30;;;;;;5093767;28;20730;-85
2023/09/16 09:42:48;;;;;;;4.07;3.35;;;23.90;99.90;;;;;;5093893;28;20256;-85
2023/09/16 09:45:15;;;;;;;3.65;3.35;;;23.80;99.90;;;;;;5077759;28;20255;-85
2023/09/16 09:47:42;;;;;;;3.92;3.58;;;23.70;68.80;;;;;;5077767;28;20597;-85
2023/09/16 09:50:12;;;;;;;3.72;3.35;;;23.80;99.90;;;;;;5092801;28;20695;-86
2023/09/16 09:52:38;;;;;;;3.90;3.28;;;23.80;1.00;;;;;;5078110;28;20161;-86
2023/09/16 09:55:04;;;;;;;3.63;3.33;;;23.80;1.00;;;;;;5092866;28;20203;-85
2023/09/16 09:57:30;;;;;;;5.03;3.88;;;23.90;1.00;;;;;;5092467;28;20244;-85
2023/09/16 09:59:56;;;;;;;4.15;3.38;;;24.00;1.00;;;;;;5093785;28;20524;-84
2023/09/16 10:02:24;;;;;;;5.00;3.63;;;23.90;1.00;;;;;;5077287;28;20205;-85
2023/09/16 10:05:01;;;;;;;4.28;3.40;;;23.90;1.00;;;;;;5093104;28;20196;-82
2023/09/16 10:07:27;;;;;;;4.10;3.72;;;24.10;1.00;;;;;;5097582;28;20161;-83
2023/09/16 10:09:53;;;;;;;4.82;3.30;;;24.10;1.00;;;;;;5082846;28;20180;-84
2023/09/16 10:12:20;;;;;;;3.63;3.33;;;24.20;1.00;;;;;;5081364;28;20177;-85
2023/09/16 10:14:46;;;;;;;4.28;3.65;;;24.20;1.00;;;;;;5080585;28;20672;-81
2023/09/16 10:17:12;;;;;;;4.95;3.55;;;24.30;1.00;;;;;;5078919;28;20169;-81
2023/09/16 10:19:38;;;;;;;3.65;3.35;;;24.40;1.00;;;;;;5095336;28;20181;-84
2023/09/16 10:22:04;;;;;;;3.67;3.38;;;24.40;99.90;;;;;;5080341;28;20548;-82
2023/09/16 10:24:29;;;;;;;3.80;3.35;;;24.50;1.00;;;;;;5078270;28;20246;-79
2023/09/16 10:26:57;;;;;;;3.50;3.20;;;24.70;1.00;;;;;;5077491;28;20503;-81
2023/09/16 10:29:25;;;;;;;4.00;3.08;;;24.50;99.90;;;;;;5076711;28;20173;-81
2023/09/16 10:31:53;;;;;;;4.63;3.55;;;24.60;1.00;;;;;;5075914;28;20259;-79
2023/09/16 10:34:18;;;;;;;4.45;3.85;;;24.70;1.00;;;;;;5076064;28;20231;-82
2023/09/16 10:36:44;;;;;;;3.60;3.28;;;24.70;99.90;;;;;;5091709;28;20169;-80
2023/09/16 10:39:12;;;;;;;4.35;3.30;;;24.80;99.90;;;;;;5076969;28;20266;-77
2023/09/16 10:41:38;;;;;;;3.65;3.35;;;25.10;99.90;;;;;;5077487;28;20169;-77
2023/09/16 10:44:06;;;;;;;4.00;3.47;;;25.30;99.90;;;;;;5094372;28;20189;-77
2023/09/16 10:46:33;;;;;;;5.45;3.42;;;25.20;99.90;;;;;;5076978;28;20181;-78
2023/09/16 10:48:59;;;;;;;3.70;3.40;;;25.30;99.90;;;;;;5089851;28;20184;-79
2023/09/16 10:51:28;;;;;;;4.18;3.78;;;25.30;99.90;;;;;;5074326;28;20204;-78
2023/09/16 10:54:09;;;;;;;3.83;3.50;;;25.20;99.90;;;;;;5089847;28;20192;-79
2023/09/16 10:56:42;;;;;;;3.50;3.20;;;25.30;1.00;;;;;;5090716;28;20258;-78
2023/09/16 10:59:10;;;;;;;4.60;3.28;;;25.50;1.00;;;;;;5090179;28;20191;-79
2023/09/16 11:01:48;;;;;;;4.10;3.70;;;25.80;99.90;;;;;;5090128;28;20169;-78
2023/09/16 11:04:17;;;;;;;4.10;3.78;;;25.90;1.00;;;;;;5090363;28;20192;-78
2023/09/16 11:06:47;;;;;;;3.88;3.40;;;25.90;1.00;;;;;;5090046;28;20223;-76
2023/09/16 11:09:14;;;;;;;4.18;3.78;;;26.00;1.00;;;;;;5089521;28;20238;-78
2023/09/16 11:11:40;;;;;;;4.88;3.65;;;26.00;9.00;;;;;;5089731;28;20188;-78
2023/09/16 11:14:06;;;;;;;5.07;3.60;;;26.00;1.00;;;;;;5074008;28;20588;-78
2023/09/16 11:16:49;;;;;;;3.17;2.97;;;26.10;99.90;;;;;;5074924;28;20176;-80
2023/09/16 11:19:15;;;;;;;4.03;3.55;;;26.30;99.90;;;;;;5073951;28;20242;-81
2023/09/16 11:21:43;;;;;;;3.70;3.40;;;26.40;1.00;;;;;;5071691;28;20177;-76
2023/09/16 11:24:10;;;;;;;3.45;3.15;;;26.60;1.00;;;;;;5071968;28;20189;-77
2023/09/16 11:26:39;;;;;;;3.85;3.33;;;26.70;1.00;;;;;;5072751;28;20165;-76
2023/09/16 11:29:28;;;;;;;3.28;2.97;;;26.90;1.00;;;;;;5072737;28;20680;-76
2023/09/16 11:31:55;;;;;;;3.58;3.28;;;26.80;1.00;;;;;;5072554;28;20689;-76
2023/09/16 11:34:23;;;;;;;4.65;3.30;;;26.80;99.90;;;;;;5072781;28;20718;-77
2023/09/16 11:36:57;;;;;;;3.67;3.38;;;26.90;1.00;;;;;;5072798;28;20722;-77
2023/09/16 11:39:32;;;;;;;4.28;3.50;;;27.00;1.00;;;;;;5071712;28;20264;-77
2023/09/16 11:41:58;;;;;;;3.50;3.25;;;27.30;1.00;;;;;;5072902;28;20180;-77
2023/09/16 11:44:24;;;;;;;3.40;3.10;;;27.40;99.90;;;;;;5071330;28;20569;-78
2023/09/16 11:46:50;;;;;;;4.03;3.42;;;27.30;1.00;;;;;;5072721;28;20175;-78
2023/09/16 11:49:16;;;;;;;3.17;2.97;;;27.40;99.90;;;;;;5074167;28;20181;-85
2023/09/16 11:51:42;;;;;;;4.53;3.40;;;27.50;99.90;;;;;;5076798;28;20176;-81
2023/09/16 11:54:07;;;;;;;4.85;3.40;;;27.70;99.90;;;;;;5076748;28;20185;-84
2023/09/16 11:56:36;;;;;;;4.88;3.20;;;27.60;99.90;;;;;;5076285;28;20201;-83
2023/09/16 11:59:04;;;;;;;3.70;3.40;;;27.60;99.90;;;;;;5076877;28;20197;-84
2023/09/16 12:01:35;;;;;;;3.55;3.10;;;27.10;1.00;;;;;;5077348;28;20165;-83
2023/09/16 12:04:04;;;;;;;4.38;3.10;;;26.90;1.00;;;;;;5076644;28;20196;-83
2023/09/16 12:06:31;;;;;;;4.15;3.10;;;27.30;99.90;;;;;;5074642;28;20173;-86
2023/09/16 12:08:58;;;;;;;5.93;3.42;;;27.10;99.90;;;;;;5074201;28;20181;-84
2023/09/16 12:11:26;;;;;;;3.08;2.88;;;27.20;99.90;;;;;;5073745;28;20212;-84
2023/09/16 12:13:53;;;;;;;3.50;3.17;;;27.30;99.90;;;;;;5074804;28;20223;-83
2023/09/16 12:16:18;;;;;;;3.40;3.10;;;27.40;99.90;;;;;;5075566;28;20185;-84
2023/09/16 12:18:44;;;;;;;4.35;3.28;;;27.60;1.00;;;;;;5075387;28;20204;-83
2023/09/16 12:21:12;;;;;;;4.03;3.13;;;27.70;98.10;;;;;;5091617;28;20177;-82
2023/09/16 12:23:39;;;;;;;3.03;2.83;;;27.90;66.50;;;;;;5074466;28;20197;-80
2023/09/16 12:26:07;;;;;;;3.30;3.10;;;28.10;1.00;;;;;;5075469;28;20187;-85
2023/09/16 12:28:33;;;;;;;3.53;3.22;;;28.10;1.00;;;;;;5072797;28;20177;-86
2023/09/16 12:30:58;;;;;;;3.78;3.00;;;28.00;1.00;;;;;;5073914;28;20188;-85
2023/09/16 12:33:41;;;;;;;3.35;3.08;;;28.00;45.90;;;;;;5072404;28;20279;-85
2023/09/16 12:36:07;;;;;;;3.75;3.03;;;28.00;59.40;;;;;;5073572;28;20184;-86
2023/09/16 12:38:38;;;;;;;3.15;2.90;;;28.30;53.80;;;;;;5071815;28;20185;-85
2023/09/16 12:41:04;;;;;;;3.13;2.90;;;28.60;1.00;;;;;;5074254;28;20223;-85
2023/09/16 12:43:30;;;;;;;3.58;3.20;;;28.60;1.00;;;;;;5076314;28;20193;-86
2023/09/16 12:45:58;;;;;;;3.17;2.97;;;28.60;1.90;;;;;;5076302;28;20165;-86